sensor_id;sensor_type;location;lat;lon;timestamp;P1;durP1;ratioP1;P2;durP2;ratioP2
16965;SDS011;8599;47.852;12.070;2023-04-25T00:00:56;1.47;;;1.37;;
16965;SDS011;8599;47.852;12.070;2023-04-25T00:03:23;1.53;;;1.43;;
16965;SDS011;8599;47.852;12.070;2023-04-25T00:05:50;1.67;;;1.57;;
16965;SDS011;8599;47.852;12.070;2023-04-25T00:08:19;2.47;;;1.70;;
16965;SDS011;8599;47.852;12.070;2023-04-25T00:10:45;1.77;;;1.40;;
16965;SDS011;8599;47.852;12.070;2023-04-25T00:13:13;3.57;;;1.47;;
16965;SDS011;8599;47.852;12.070;2023-04-25T00:15:42;1.00;;;1.00;;
16965;SDS011;8599;47.852;12.070;2023-04-25T00:18:09;1.47;;;1.37;;
16965;SDS011;8599;47.852;12.070;2023-04-25T00:20:36;2.47;;;1.37;;
16965;SDS011;8599;47.852;12.070;2023-04-25T00:23:03;2.23;;;1.67;;
16965;SDS011;8599;47.852;12.070;2023-04-25T00:25:32;1.40;;;1.30;;
16965;SDS011;8599;47.852;12.070;2023-04-25T00:27:59;1.60;;;1.50;;
16965;SDS011;8599;47.852;12.070;2023-04-25T00:30:26;4.13;;;1.40;;
16965;SDS011;8599;47.852;12.070;2023-04-25T00:32:52;5.63;;;1.50;;
16965;SDS011;8599;47.852;12.070;2023-04-25T00:35:19;1.77;;;1.40;;
16965;SDS011;8599;47.852;12.070;2023-04-25T00:37:46;1.37;;;1.27;;
16965;SDS011;8599;47.852;12.070;2023-04-25T00:40:13;2.43;;;1.50;;
16965;SDS011;8599;47.852;12.070;2023-04-25T00:42:41;1.40;;;1.30;;
16965;SDS011;8599;47.852;12.070;2023-04-25T00:45:08;2.27;;;1.40;;
16965;SDS011;8599;47.852;12.070;2023-04-25T00:47:39;1.73;;;1.63;;
16965;SDS011;8599;47.852;12.070;2023-04-25T00:50:07;2.13;;;1.50;;
16965;SDS011;8599;47.852;12.070;2023-04-25T00:52:34;6.97;;;1.67;;
16965;SDS011;8599;47.852;12.070;2023-04-25T00:55:01;5.03;;;2.20;;
16965;SDS011;8599;47.852;12.070;2023-04-25T00:57:28;4.43;;;1.90;;
16965;SDS011;8599;47.852;12.070;2023-04-25T00:59:57;1.63;;;1.47;;
16965;SDS011;8599;47.852;12.070;2023-04-25T01:02:25;1.63;;;1.53;;
16965;SDS011;8599;47.852;12.070;2023-04-25T01:04:53;2.93;;;1.83;;
16965;SDS011;8599;47.852;12.070;2023-04-25T01:07:20;1.30;;;1.20;;
16965;SDS011;8599;47.852;12.070;2023-04-25T01:09:46;4.87;;;1.33;;
16965;SDS011;8599;47.852;12.070;2023-04-25T01:12:14;1.67;;;1.53;;
16965;SDS011;8599;47.852;12.070;2023-04-25T01:14:40;1.40;;;1.30;;
16965;SDS011;8599;47.852;12.070;2023-04-25T01:17:09;1.23;;;1.10;;
16965;SDS011;8599;47.852;12.070;2023-04-25T01:19:36;2.00;;;1.57;;
16965;SDS011;8599;47.852;12.070;2023-04-25T01:22:04;1.30;;;1.20;;
16965;SDS011;8599;47.852;12.070;2023-04-25T01:24:32;2.20;;;1.30;;
16965;SDS011;8599;47.852;12.070;2023-04-25T01:26:59;1.40;;;1.20;;
16965;SDS011;8599;47.852;12.070;2023-04-25T01:29:27;2.07;;;1.10;;
16965;SDS011;8599;47.852;12.070;2023-04-25T01:31:55;2.23;;;1.20;;
16965;SDS011;8599;47.852;12.070;2023-04-25T01:34:23;1.47;;;1.37;;
16965;SDS011;8599;47.852;12.070;2023-04-25T01:36:50;3.57;;;1.73;;
16965;SDS011;8599;47.852;12.070;2023-04-25T01:39:18;2.10;;;1.20;;
16965;SDS011;8599;47.852;12.070;2023-04-25T01:41:46;1.67;;;1.27;;
16965;SDS011;8599;47.852;12.070;2023-04-25T01:44:13;1.80;;;1.70;;
16965;SDS011;8599;47.852;12.070;2023-04-25T01:46:40;3.43;;;1.67;;
16965;SDS011;8599;47.852;12.070;2023-04-25T01:49:07;1.83;;;1.50;;
16965;SDS011;8599;47.852;12.070;2023-04-25T01:51:34;1.40;;;1.30;;
16965;SDS011;8599;47.852;12.070;2023-04-25T01:54:01;2.50;;;1.67;;
16965;SDS011;8599;47.852;12.070;2023-04-25T01:56:31;1.83;;;1.70;;
16965;SDS011;8599;47.852;12.070;2023-04-25T01:58:58;2.63;;;1.40;;
16965;SDS011;8599;47.852;12.070;2023-04-25T02:01:25;1.87;;;1.40;;
16965;SDS011;8599;47.852;12.070;2023-04-25T02:03:52;1.27;;;1.17;;
16965;SDS011;8599;47.852;12.070;2023-04-25T02:06:19;4.07;;;1.77;;
16965;SDS011;8599;47.852;12.070;2023-04-25T02:08:46;1.70;;;1.60;;
16965;SDS011;8599;47.852;12.070;2023-04-25T02:11:12;4.30;;;2.10;;
16965;SDS011;8599;47.852;12.070;2023-04-25T02:13:41;1.70;;;1.30;;
16965;SDS011;8599;47.852;12.070;2023-04-25T02:16:07;1.60;;;1.43;;
16965;SDS011;8599;47.852;12.070;2023-04-25T02:18:34;1.60;;;1.50;;
16965;SDS011;8599;47.852;12.070;2023-04-25T02:21:02;1.80;;;1.30;;
16965;SDS011;8599;47.852;12.070;2023-04-25T02:23:29;2.27;;;1.33;;
16965;SDS011;8599;47.852;12.070;2023-04-25T02:25:56;1.97;;;1.53;;
16965;SDS011;8599;47.852;12.070;2023-04-25T02:28:23;1.80;;;1.63;;
16965;SDS011;8599;47.852;12.070;2023-04-25T02:30:52;2.47;;;1.77;;
16965;SDS011;8599;47.852;12.070;2023-04-25T02:33:19;1.10;;;1.10;;
16965;SDS011;8599;47.852;12.070;2023-04-25T02:35:47;1.43;;;1.37;;
16965;SDS011;8599;47.852;12.070;2023-04-25T02:38:13;4.57;;;2.17;;
16965;SDS011;8599;47.852;12.070;2023-04-25T02:40:40;3.63;;;1.70;;
16965;SDS011;8599;47.852;12.070;2023-04-25T02:43:07;1.93;;;1.77;;
16965;SDS011;8599;47.852;12.070;2023-04-25T02:45:34;2.13;;;1.93;;
16965;SDS011;8599;47.852;12.070;2023-04-25T02:48:03;3.27;;;1.90;;
16965;SDS011;8599;47.852;12.070;2023-04-25T02:50:30;2.10;;;1.60;;
16965;SDS011;8599;47.852;12.070;2023-04-25T02:52:57;3.83;;;1.80;;
16965;SDS011;8599;47.852;12.070;2023-04-25T02:55:24;2.73;;;2.00;;
16965;SDS011;8599;47.852;12.070;2023-04-25T02:57:51;1.77;;;1.67;;
16965;SDS011;8599;47.852;12.070;2023-04-25T03:00:20;1.90;;;1.60;;
16965;SDS011;8599;47.852;12.070;2023-04-25T03:02:47;2.07;;;1.57;;
16965;SDS011;8599;47.852;12.070;2023-04-25T03:05:15;2.43;;;1.90;;
16965;SDS011;8599;47.852;12.070;2023-04-25T03:07:42;10.03;;;1.93;;
16965;SDS011;8599;47.852;12.070;2023-04-25T03:10:10;5.33;;;1.80;;
16965;SDS011;8599;47.852;12.070;2023-04-25T03:12:38;4.77;;;1.83;;
16965;SDS011;8599;47.852;12.070;2023-04-25T03:15:05;2.23;;;1.90;;
16965;SDS011;8599;47.852;12.070;2023-04-25T03:17:32;3.10;;;2.27;;
16965;SDS011;8599;47.852;12.070;2023-04-25T03:19:59;2.17;;;1.80;;
16965;SDS011;8599;47.852;12.070;2023-04-25T03:22:30;4.07;;;1.83;;
16965;SDS011;8599;47.852;12.070;2023-04-25T03:24:57;1.83;;;1.73;;
16965;SDS011;8599;47.852;12.070;2023-04-25T03:27:24;3.70;;;2.27;;
16965;SDS011;8599;47.852;12.070;2023-04-25T03:29:50;5.30;;;2.47;;
16965;SDS011;8599;47.852;12.070;2023-04-25T03:32:17;2.77;;;1.93;;
16965;SDS011;8599;47.852;12.070;2023-04-25T03:34:44;1.93;;;1.57;;
16965;SDS011;8599;47.852;12.070;2023-04-25T03:37:11;2.77;;;1.67;;
16965;SDS011;8599;47.852;12.070;2023-04-25T03:39:39;3.20;;;1.53;;
16965;SDS011;8599;47.852;12.070;2023-04-25T03:42:06;3.13;;;1.90;;
16965;SDS011;8599;47.852;12.070;2023-04-25T03:44:33;2.77;;;1.90;;
16965;SDS011;8599;47.852;12.070;2023-04-25T03:47:00;5.57;;;2.17;;
16965;SDS011;8599;47.852;12.070;2023-04-25T03:49:27;7.93;;;2.00;;
16965;SDS011;8599;47.852;12.070;2023-04-25T03:51:53;5.77;;;2.00;;
16965;SDS011;8599;47.852;12.070;2023-04-25T03:54:20;2.00;;;1.77;;
16965;SDS011;8599;47.852;12.070;2023-04-25T03:56:48;1.73;;;1.63;;
16965;SDS011;8599;47.852;12.070;2023-04-25T03:59:15;2.40;;;2.13;;
16965;SDS011;8599;47.852;12.070;2023-04-25T04:01:42;1.90;;;1.50;;
16965;SDS011;8599;47.852;12.070;2023-04-25T04:04:09;3.03;;;1.80;;
16965;SDS011;8599;47.852;12.070;2023-04-25T04:06:35;1.90;;;1.80;;
16965;SDS011;8599;47.852;12.070;2023-04-25T04:09:02;1.90;;;1.50;;
16965;SDS011;8599;47.852;12.070;2023-04-25T04:11:30;7.10;;;2.57;;
16965;SDS011;8599;47.852;12.070;2023-04-25T04:13:58;8.87;;;2.50;;
16965;SDS011;8599;47.852;12.070;2023-04-25T04:16:25;3.47;;;2.20;;
16965;SDS011;8599;47.852;12.070;2023-04-25T04:18:52;2.10;;;1.80;;
16965;SDS011;8599;47.852;12.070;2023-04-25T04:21:19;2.20;;;2.00;;
16965;SDS011;8599;47.852;12.070;2023-04-25T04:23:46;3.93;;;2.20;;
16965;SDS011;8599;47.852;12.070;2023-04-25T04:26:13;2.27;;;1.70;;
16965;SDS011;8599;47.852;12.070;2023-04-25T04:28:41;6.40;;;2.03;;
16965;SDS011;8599;47.852;12.070;2023-04-25T04:31:10;1.73;;;1.63;;
16965;SDS011;8599;47.852;12.070;2023-04-25T04:33:37;1.33;;;1.23;;
16965;SDS011;8599;47.852;12.070;2023-04-25T04:36:05;1.83;;;1.73;;
16965;SDS011;8599;47.852;12.070;2023-04-25T04:38:32;6.17;;;3.63;;
16965;SDS011;8599;47.852;12.070;2023-04-25T04:40:59;3.57;;;2.60;;
16965;SDS011;8599;47.852;12.070;2023-04-25T04:43:27;3.87;;;2.87;;
16965;SDS011;8599;47.852;12.070;2023-04-25T04:45:54;2.33;;;2.13;;
16965;SDS011;8599;47.852;12.070;2023-04-25T04:48:23;2.33;;;2.00;;
16965;SDS011;8599;47.852;12.070;2023-04-25T04:50:50;2.67;;;2.37;;
16965;SDS011;8599;47.852;12.070;2023-04-25T04:53:17;3.47;;;2.13;;
16965;SDS011;8599;47.852;12.070;2023-04-25T04:55:43;5.20;;;2.00;;
16965;SDS011;8599;47.852;12.070;2023-04-25T04:58:11;3.00;;;2.13;;
16965;SDS011;8599;47.852;12.070;2023-04-25T05:00:38;6.53;;;2.10;;
16965;SDS011;8599;47.852;12.070;2023-04-25T05:03:05;2.00;;;1.90;;
16965;SDS011;8599;47.852;12.070;2023-04-25T05:05:33;7.03;;;2.40;;
16965;SDS011;8599;47.852;12.070;2023-04-25T05:08:00;8.43;;;2.10;;
16965;SDS011;8599;47.852;12.070;2023-04-25T05:10:27;2.87;;;1.83;;
16965;SDS011;8599;47.852;12.070;2023-04-25T05:12:53;3.60;;;1.73;;
16965;SDS011;8599;47.852;12.070;2023-04-25T05:15:20;4.20;;;2.50;;
16965;SDS011;8599;47.852;12.070;2023-04-25T05:17:47;3.50;;;2.23;;
16965;SDS011;8599;47.852;12.070;2023-04-25T05:20:14;4.30;;;1.63;;
16965;SDS011;8599;47.852;12.070;2023-04-25T05:22:42;2.00;;;1.60;;
16965;SDS011;8599;47.852;12.070;2023-04-25T05:25:09;1.17;;;1.13;;
16965;SDS011;8599;47.852;12.070;2023-04-25T05:27:36;1.37;;;1.27;;
16965;SDS011;8599;47.852;12.070;2023-04-25T05:30:03;1.77;;;1.40;;
16965;SDS011;8599;47.852;12.070;2023-04-25T05:32:31;3.30;;;1.53;;
16965;SDS011;8599;47.852;12.070;2023-04-25T05:34:59;2.60;;;1.23;;
16965;SDS011;8599;47.852;12.070;2023-04-25T05:37:26;1.47;;;1.10;;
16965;SDS011;8599;47.852;12.070;2023-04-25T05:39:54;1.70;;;1.40;;
16965;SDS011;8599;47.852;12.070;2023-04-25T05:42:21;2.90;;;2.03;;
16965;SDS011;8599;47.852;12.070;2023-04-25T05:44:48;1.60;;;1.50;;
16965;SDS011;8599;47.852;12.070;2023-04-25T05:47:15;2.17;;;1.33;;
16965;SDS011;8599;47.852;12.070;2023-04-25T05:49:41;1.20;;;1.20;;
16965;SDS011;8599;47.852;12.070;2023-04-25T05:52:08;2.80;;;1.50;;
16965;SDS011;8599;47.852;12.070;2023-04-25T05:54:35;2.63;;;1.50;;
16965;SDS011;8599;47.852;12.070;2023-04-25T05:57:03;1.00;;;1.00;;
16965;SDS011;8599;47.852;12.070;2023-04-25T05:59:30;3.43;;;1.20;;
16965;SDS011;8599;47.852;12.070;2023-04-25T06:01:57;1.87;;;1.50;;
16965;SDS011;8599;47.852;12.070;2023-04-25T06:04:24;1.90;;;1.23;;
16965;SDS011;8599;47.852;12.070;2023-04-25T06:06:51;2.53;;;1.13;;
16965;SDS011;8599;47.852;12.070;2023-04-25T06:09:18;1.93;;;1.23;;
16965;SDS011;8599;47.852;12.070;2023-04-25T06:11:45;2.07;;;1.70;;
16965;SDS011;8599;47.852;12.070;2023-04-25T06:14:13;1.80;;;1.50;;
16965;SDS011;8599;47.852;12.070;2023-04-25T06:16:40;2.10;;;1.47;;
16965;SDS011;8599;47.852;12.070;2023-04-25T06:19:06;2.40;;;2.10;;
16965;SDS011;8599;47.852;12.070;2023-04-25T06:21:33;3.30;;;1.80;;
16965;SDS011;8599;47.852;12.070;2023-04-25T06:24:00;1.93;;;1.57;;
16965;SDS011;8599;47.852;12.070;2023-04-25T06:26:27;1.40;;;1.30;;
16965;SDS011;8599;47.852;12.070;2023-04-25T06:28:54;5.43;;;1.63;;
16965;SDS011;8599;47.852;12.070;2023-04-25T06:31:22;3.17;;;1.47;;
16965;SDS011;8599;47.852;12.070;2023-04-25T06:33:48;1.57;;;1.20;;
16965;SDS011;8599;47.852;12.070;2023-04-25T06:36:15;1.60;;;1.50;;
16965;SDS011;8599;47.852;12.070;2023-04-25T06:38:42;2.87;;;1.57;;
16965;SDS011;8599;47.852;12.070;2023-04-25T06:41:09;2.40;;;1.50;;
16965;SDS011;8599;47.852;12.070;2023-04-25T06:43:36;1.77;;;1.67;;
16965;SDS011;8599;47.852;12.070;2023-04-25T06:46:02;2.37;;;1.57;;
16965;SDS011;8599;47.852;12.070;2023-04-25T06:48:30;1.60;;;1.50;;
16965;SDS011;8599;47.852;12.070;2023-04-25T06:50:57;5.03;;;1.70;;
16965;SDS011;8599;47.852;12.070;2023-04-25T06:53:24;1.50;;;1.40;;
16965;SDS011;8599;47.852;12.070;2023-04-25T06:55:51;1.87;;;1.47;;
16965;SDS011;8599;47.852;12.070;2023-04-25T06:58:18;2.10;;;1.60;;
16965;SDS011;8599;47.852;12.070;2023-04-25T07:00:45;2.00;;;1.80;;
16965;SDS011;8599;47.852;12.070;2023-04-25T07:03:11;2.20;;;1.93;;
16965;SDS011;8599;47.852;12.070;2023-04-25T07:05:40;1.73;;;1.53;;
16965;SDS011;8599;47.852;12.070;2023-04-25T07:08:06;2.03;;;1.83;;
16965;SDS011;8599;47.852;12.070;2023-04-25T07:10:33;2.00;;;1.60;;
16965;SDS011;8599;47.852;12.070;2023-04-25T07:13:00;3.97;;;1.80;;
16965;SDS011;8599;47.852;12.070;2023-04-25T07:15:27;3.97;;;1.90;;
16965;SDS011;8599;47.852;12.070;2023-04-25T07:17:53;13.30;;;2.37;;
16965;SDS011;8599;47.852;12.070;2023-04-25T07:20:20;4.20;;;1.73;;
16965;SDS011;8599;47.852;12.070;2023-04-25T07:22:48;1.80;;;1.70;;
16965;SDS011;8599;47.852;12.070;2023-04-25T07:25:16;6.83;;;1.70;;
16965;SDS011;8599;47.852;12.070;2023-04-25T07:27:43;2.17;;;1.53;;
16965;SDS011;8599;47.852;12.070;2023-04-25T07:30:10;2.97;;;1.23;;
16965;SDS011;8599;47.852;12.070;2023-04-25T07:32:38;3.83;;;1.60;;
16965;SDS011;8599;47.852;12.070;2023-04-25T07:35:05;4.17;;;1.73;;
16965;SDS011;8599;47.852;12.070;2023-04-25T07:37:33;1.97;;;1.47;;
16965;SDS011;8599;47.852;12.070;2023-04-25T07:40:01;3.33;;;1.40;;
16965;SDS011;8599;47.852;12.070;2023-04-25T07:42:29;3.23;;;1.53;;
16965;SDS011;8599;47.852;12.070;2023-04-25T07:44:56;2.33;;;1.73;;
16965;SDS011;8599;47.852;12.070;2023-04-25T07:47:23;2.63;;;1.67;;
16965;SDS011;8599;47.852;12.070;2023-04-25T07:49:50;3.13;;;1.70;;
16965;SDS011;8599;47.852;12.070;2023-04-25T07:52:17;1.87;;;1.63;;
16965;SDS011;8599;47.852;12.070;2023-04-25T07:54:44;5.80;;;2.03;;
16965;SDS011;8599;47.852;12.070;2023-04-25T07:57:12;1.30;;;1.20;;
16965;SDS011;8599;47.852;12.070;2023-04-25T07:59:39;4.80;;;1.70;;
16965;SDS011;8599;47.852;12.070;2023-04-25T08:02:05;10.07;;;1.87;;
16965;SDS011;8599;47.852;12.070;2023-04-25T08:04:32;6.17;;;1.47;;
16965;SDS011;8599;47.852;12.070;2023-04-25T08:06:59;4.63;;;1.80;;
16965;SDS011;8599;47.852;12.070;2023-04-25T08:09:26;2.20;;;1.37;;
16965;SDS011;8599;47.852;12.070;2023-04-25T08:11:54;1.37;;;1.20;;
16965;SDS011;8599;47.852;12.070;2023-04-25T08:14:22;2.97;;;1.37;;
16965;SDS011;8599;47.852;12.070;2023-04-25T08:16:49;1.93;;;1.63;;
16965;SDS011;8599;47.852;12.070;2023-04-25T08:19:16;2.27;;;1.47;;
16965;SDS011;8599;47.852;12.070;2023-04-25T08:21:42;2.10;;;1.47;;
16965;SDS011;8599;47.852;12.070;2023-04-25T08:24:09;1.87;;;1.27;;
16965;SDS011;8599;47.852;12.070;2023-04-25T08:26:36;4.23;;;1.63;;
16965;SDS011;8599;47.852;12.070;2023-04-25T08:29:04;2.43;;;1.70;;
16965;SDS011;8599;47.852;12.070;2023-04-25T08:31:32;4.47;;;1.93;;
16965;SDS011;8599;47.852;12.070;2023-04-25T08:33:59;4.47;;;1.73;;
16965;SDS011;8599;47.852;12.070;2023-04-25T08:36:26;1.80;;;1.33;;
16965;SDS011;8599;47.852;12.070;2023-04-25T08:38:53;2.67;;;1.60;;
16965;SDS011;8599;47.852;12.070;2023-04-25T08:41:21;1.90;;;1.33;;
16965;SDS011;8599;47.852;12.070;2023-04-25T08:43:48;3.73;;;2.03;;
16965;SDS011;8599;47.852;12.070;2023-04-25T08:46:17;1.90;;;1.47;;
16965;SDS011;8599;47.852;12.070;2023-04-25T08:48:46;1.93;;;1.67;;
16965;SDS011;8599;47.852;12.070;2023-04-25T08:51:15;4.30;;;1.70;;
16965;SDS011;8599;47.852;12.070;2023-04-25T08:53:47;4.10;;;1.60;;
16965;SDS011;8599;47.852;12.070;2023-04-25T08:56:17;3.33;;;1.17;;
16965;SDS011;8599;47.852;12.070;2023-04-25T09:01:14;3.20;;;1.20;;
16965;SDS011;8599;47.852;12.070;2023-04-25T09:03:40;0.80;;;0.80;;
16965;SDS011;8599;47.852;12.070;2023-04-25T09:06:09;2.43;;;1.00;;
16965;SDS011;8599;47.852;12.070;2023-04-25T09:08:37;2.97;;;1.17;;
16965;SDS011;8599;47.852;12.070;2023-04-25T09:11:05;1.20;;;1.03;;
16965;SDS011;8599;47.852;12.070;2023-04-25T09:13:32;1.00;;;1.00;;
16965;SDS011;8599;47.852;12.070;2023-04-25T09:15:59;1.47;;;1.30;;
16965;SDS011;8599;47.852;12.070;2023-04-25T09:18:27;1.57;;;1.20;;
16965;SDS011;8599;47.852;12.070;2023-04-25T09:20:55;1.97;;;1.20;;
16965;SDS011;8599;47.852;12.070;2023-04-25T09:23:23;1.37;;;1.00;;
16965;SDS011;8599;47.852;12.070;2023-04-25T09:25:50;0.80;;;0.80;;
16965;SDS011;8599;47.852;12.070;2023-04-25T09:28:22;3.03;;;1.30;;
16965;SDS011;8599;47.852;12.070;2023-04-25T09:30:53;1.37;;;1.23;;
16965;SDS011;8599;47.852;12.070;2023-04-25T09:33:23;1.73;;;1.30;;
16965;SDS011;8599;47.852;12.070;2023-04-25T09:35:56;2.93;;;1.43;;
16965;SDS011;8599;47.852;12.070;2023-04-25T09:38:31;2.67;;;0.97;;
16965;SDS011;8599;47.852;12.070;2023-04-25T09:40:58;1.43;;;1.20;;
16965;SDS011;8599;47.852;12.070;2023-04-25T09:43:26;3.23;;;1.47;;
16965;SDS011;8599;47.852;12.070;2023-04-25T09:45:54;3.40;;;1.37;;
16965;SDS011;8599;47.852;12.070;2023-04-25T09:48:24;1.13;;;1.00;;
16965;SDS011;8599;47.852;12.070;2023-04-25T09:51:05;0.60;;;0.60;;
16965;SDS011;8599;47.852;12.070;2023-04-25T09:53:34;0.90;;;0.90;;
16965;SDS011;8599;47.852;12.070;2023-04-25T09:56:03;6.53;;;0.80;;
16965;SDS011;8599;47.852;12.070;2023-04-25T09:58:31;0.87;;;0.70;;
16965;SDS011;8599;47.852;12.070;2023-04-25T10:00:59;0.87;;;0.80;;
16965;SDS011;8599;47.852;12.070;2023-04-25T10:03:28;0.80;;;0.80;;
16965;SDS011;8599;47.852;12.070;2023-04-25T10:05:56;0.50;;;0.50;;
16965;SDS011;8599;47.852;12.070;2023-04-25T10:08:26;0.50;;;0.50;;
16965;SDS011;8599;47.852;12.070;2023-04-25T10:11:00;1.27;;;0.80;;
16965;SDS011;8599;47.852;12.070;2023-04-25T10:13:28;1.17;;;0.70;;
16965;SDS011;8599;47.852;12.070;2023-04-25T10:15:57;0.70;;;0.70;;
16965;SDS011;8599;47.852;12.070;2023-04-25T10:18:24;1.00;;;0.80;;
16965;SDS011;8599;47.852;12.070;2023-04-25T10:20:52;5.73;;;1.53;;
16965;SDS011;8599;47.852;12.070;2023-04-25T10:23:20;1.73;;;1.10;;
16965;SDS011;8599;47.852;12.070;2023-04-25T10:25:47;2.40;;;1.00;;
16965;SDS011;8599;47.852;12.070;2023-04-25T10:28:16;3.07;;;1.20;;
16965;SDS011;8599;47.852;12.070;2023-04-25T10:30:56;1.90;;;1.20;;
16965;SDS011;8599;47.852;12.070;2023-04-25T10:33:29;2.13;;;1.43;;
16965;SDS011;8599;47.852;12.070;2023-04-25T10:36:08;1.73;;;1.00;;
16965;SDS011;8599;47.852;12.070;2023-04-25T10:38:36;0.93;;;0.93;;
16965;SDS011;8599;47.852;12.070;2023-04-25T10:41:03;4.17;;;1.80;;
16965;SDS011;8599;47.852;12.070;2023-04-25T10:43:34;1.73;;;1.30;;
16965;SDS011;8599;47.852;12.070;2023-04-25T10:46:03;1.33;;;1.23;;
16965;SDS011;8599;47.852;12.070;2023-04-25T10:48:43;3.13;;;1.13;;
16965;SDS011;8599;47.852;12.070;2023-04-25T10:51:16;1.70;;;1.43;;
16965;SDS011;8599;47.852;12.070;2023-04-25T10:53:44;1.70;;;1.60;;
16965;SDS011;8599;47.852;12.070;2023-04-25T10:56:16;4.70;;;1.43;;
16965;SDS011;8599;47.852;12.070;2023-04-25T10:58:45;4.23;;;1.70;;
16965;SDS011;8599;47.852;12.070;2023-04-25T11:01:13;7.13;;;1.40;;
16965;SDS011;8599;47.852;12.070;2023-04-25T11:03:40;1.57;;;1.30;;
16965;SDS011;8599;47.852;12.070;2023-04-25T11:06:10;1.77;;;1.47;;
16965;SDS011;8599;47.852;12.070;2023-04-25T11:08:47;4.53;;;1.83;;
16965;SDS011;8599;47.852;12.070;2023-04-25T11:11:16;1.30;;;1.07;;
16965;SDS011;8599;47.852;12.070;2023-04-25T11:13:43;2.80;;;1.37;;
16965;SDS011;8599;47.852;12.070;2023-04-25T11:16:13;1.70;;;1.60;;
16965;SDS011;8599;47.852;12.070;2023-04-25T11:18:40;2.70;;;1.20;;
16965;SDS011;8599;47.852;12.070;2023-04-25T11:21:08;2.83;;;1.40;;
16965;SDS011;8599;47.852;12.070;2023-04-25T11:23:35;3.00;;;1.50;;
16965;SDS011;8599;47.852;12.070;2023-04-25T11:26:02;1.87;;;1.23;;
16965;SDS011;8599;47.852;12.070;2023-04-25T11:28:29;5.20;;;1.50;;
16965;SDS011;8599;47.852;12.070;2023-04-25T11:30:57;2.37;;;1.40;;
16965;SDS011;8599;47.852;12.070;2023-04-25T11:33:25;5.00;;;1.70;;
16965;SDS011;8599;47.852;12.070;2023-04-25T11:35:53;2.83;;;1.70;;
16965;SDS011;8599;47.852;12.070;2023-04-25T11:38:21;1.50;;;1.30;;
16965;SDS011;8599;47.852;12.070;2023-04-25T11:40:49;1.50;;;1.00;;
16965;SDS011;8599;47.852;12.070;2023-04-25T11:43:17;3.37;;;1.13;;
16965;SDS011;8599;47.852;12.070;2023-04-25T11:45:45;7.43;;;1.33;;
16965;SDS011;8599;47.852;12.070;2023-04-25T11:48:14;1.87;;;1.17;;
16965;SDS011;8599;47.852;12.070;2023-04-25T11:50:41;1.37;;;1.27;;
16965;SDS011;8599;47.852;12.070;2023-04-25T11:53:08;2.00;;;1.20;;
16965;SDS011;8599;47.852;12.070;2023-04-25T11:55:35;2.63;;;1.23;;
16965;SDS011;8599;47.852;12.070;2023-04-25T11:58:03;2.97;;;1.30;;
16965;SDS011;8599;47.852;12.070;2023-04-25T12:00:30;1.30;;;1.20;;
16965;SDS011;8599;47.852;12.070;2023-04-25T12:02:57;1.33;;;1.13;;
16965;SDS011;8599;47.852;12.070;2023-04-25T12:05:27;7.20;;;1.40;;
16965;SDS011;8599;47.852;12.070;2023-04-25T12:07:55;4.80;;;1.50;;
16965;SDS011;8599;47.852;12.070;2023-04-25T12:10:23;4.43;;;1.40;;
16965;SDS011;8599;47.852;12.070;2023-04-25T12:12:50;1.40;;;1.30;;
16965;SDS011;8599;47.852;12.070;2023-04-25T12:15:18;1.97;;;1.13;;
16965;SDS011;8599;47.852;12.070;2023-04-25T12:17:51;1.33;;;1.17;;
16965;SDS011;8599;47.852;12.070;2023-04-25T12:20:19;3.00;;;1.00;;
16965;SDS011;8599;47.852;12.070;2023-04-25T12:22:50;1.33;;;1.20;;
16965;SDS011;8599;47.852;12.070;2023-04-25T12:28:09;2.93;;;0.90;;
16965;SDS011;8599;47.852;12.070;2023-04-25T12:30:52;1.20;;;1.10;;
16965;SDS011;8599;47.852;12.070;2023-04-25T12:33:20;1.30;;;1.20;;
16965;SDS011;8599;47.852;12.070;2023-04-25T12:35:47;0.80;;;0.80;;
16965;SDS011;8599;47.852;12.070;2023-04-25T12:38:21;1.07;;;0.80;;
16965;SDS011;8599;47.852;12.070;2023-04-25T12:40:49;4.47;;;0.90;;
16965;SDS011;8599;47.852;12.070;2023-04-25T12:43:15;1.27;;;0.90;;
16965;SDS011;8599;47.852;12.070;2023-04-25T12:45:42;1.13;;;0.80;;
16965;SDS011;8599;47.852;12.070;2023-04-25T12:48:09;2.07;;;1.13;;
16965;SDS011;8599;47.852;12.070;2023-04-25T12:50:36;2.73;;;0.83;;
16965;SDS011;8599;47.852;12.070;2023-04-25T12:53:03;1.47;;;0.80;;
16965;SDS011;8599;47.852;12.070;2023-04-25T12:55:31;1.90;;;1.07;;
16965;SDS011;8599;47.852;12.070;2023-04-25T12:57:58;1.10;;;1.00;;
16965;SDS011;8599;47.852;12.070;2023-04-25T13:00:25;1.37;;;1.00;;
16965;SDS011;8599;47.852;12.070;2023-04-25T13:02:52;1.87;;;1.30;;
16965;SDS011;8599;47.852;12.070;2023-04-25T13:05:19;1.10;;;1.00;;
16965;SDS011;8599;47.852;12.070;2023-04-25T13:07:46;1.00;;;1.00;;
16965;SDS011;8599;47.852;12.070;2023-04-25T13:10:12;7.73;;;4.47;;
16965;SDS011;8599;47.852;12.070;2023-04-25T13:12:41;1.33;;;1.10;;
16965;SDS011;8599;47.852;12.070;2023-04-25T13:15:08;0.80;;;0.67;;
16965;SDS011;8599;47.852;12.070;2023-04-25T13:17:36;0.60;;;0.60;;
16965;SDS011;8599;47.852;12.070;2023-04-25T13:20:04;0.67;;;0.67;;
16965;SDS011;8599;47.852;12.070;2023-04-25T13:22:33;0.87;;;0.87;;
16965;SDS011;8599;47.852;12.070;2023-04-25T13:25:01;0.80;;;0.80;;
16965;SDS011;8599;47.852;12.070;2023-04-25T13:27:28;0.60;;;0.60;;
16965;SDS011;8599;47.852;12.070;2023-04-25T13:29:58;0.57;;;0.57;;
16965;SDS011;8599;47.852;12.070;2023-04-25T13:32:26;3.80;;;0.80;;
16965;SDS011;8599;47.852;12.070;2023-04-25T13:34:55;0.77;;;0.70;;
16965;SDS011;8599;47.852;12.070;2023-04-25T13:37:21;0.93;;;0.60;;
16965;SDS011;8599;47.852;12.070;2023-04-25T13:39:49;6.53;;;0.70;;
16965;SDS011;8599;47.852;12.070;2023-04-25T13:42:16;1.90;;;0.70;;
16965;SDS011;8599;47.852;12.070;2023-04-25T13:44:43;2.77;;;0.50;;
16965;SDS011;8599;47.852;12.070;2023-04-25T13:47:11;1.07;;;0.80;;
16965;SDS011;8599;47.852;12.070;2023-04-25T13:49:38;1.07;;;0.70;;
16965;SDS011;8599;47.852;12.070;2023-04-25T13:52:05;1.30;;;0.70;;
16965;SDS011;8599;47.852;12.070;2023-04-25T13:54:32;0.70;;;0.70;;
16965;SDS011;8599;47.852;12.070;2023-04-25T13:56:59;0.40;;;0.40;;
16965;SDS011;8599;47.852;12.070;2023-04-25T13:59:27;0.90;;;0.90;;
16965;SDS011;8599;47.852;12.070;2023-04-25T14:01:54;0.70;;;0.70;;
16965;SDS011;8599;47.852;12.070;2023-04-25T14:04:22;0.60;;;0.43;;
16965;SDS011;8599;47.852;12.070;2023-04-25T14:06:48;0.80;;;0.50;;
16965;SDS011;8599;47.852;12.070;2023-04-25T14:09:16;1.43;;;0.60;;
16965;SDS011;8599;47.852;12.070;2023-04-25T14:11:43;0.50;;;0.50;;
16965;SDS011;8599;47.852;12.070;2023-04-25T14:14:09;0.60;;;0.60;;
16965;SDS011;8599;47.852;12.070;2023-04-25T14:16:37;0.70;;;0.70;;
16965;SDS011;8599;47.852;12.070;2023-04-25T14:19:04;0.60;;;0.60;;
16965;SDS011;8599;47.852;12.070;2023-04-25T14:21:32;0.50;;;0.50;;
16965;SDS011;8599;47.852;12.070;2023-04-25T14:23:59;0.90;;;0.77;;
16965;SDS011;8599;47.852;12.070;2023-04-25T14:26:25;0.40;;;0.40;;
16965;SDS011;8599;47.852;12.070;2023-04-25T14:28:52;0.53;;;0.50;;
16965;SDS011;8599;47.852;12.070;2023-04-25T14:31:19;0.40;;;0.40;;
16965;SDS011;8599;47.852;12.070;2023-04-25T14:33:46;0.40;;;0.40;;
16965;SDS011;8599;47.852;12.070;2023-04-25T14:36:13;0.77;;;0.63;;
16965;SDS011;8599;47.852;12.070;2023-04-25T14:38:41;0.63;;;0.63;;
16965;SDS011;8599;47.852;12.070;2023-04-25T14:41:08;1.13;;;0.63;;
16965;SDS011;8599;47.852;12.070;2023-04-25T14:43:35;2.10;;;0.80;;
16965;SDS011;8599;47.852;12.070;2023-04-25T14:46:02;0.80;;;0.80;;
16965;SDS011;8599;47.852;12.070;2023-04-25T14:48:29;0.80;;;0.80;;
16965;SDS011;8599;47.852;12.070;2023-04-25T14:50:56;0.67;;;0.60;;
16965;SDS011;8599;47.852;12.070;2023-04-25T14:53:23;0.77;;;0.77;;
16965;SDS011;8599;47.852;12.070;2023-04-25T14:55:51;1.03;;;0.83;;